createdAt,value
2019-03-28T00:00:52.732Z,35.08
2019-03-28T00:03:49.311Z,35.33
2019-03-28T00:06:45.977Z,32.60
2019-03-28T00:09:42.816Z,34.60
2019-03-28T00:12:40.107Z,30.70
2019-03-28T00:15:36.869Z,28.50
2019-03-28T00:18:33.427Z,25.72
2019-03-28T00:21:30.202Z,26.35
2019-03-28T00:24:40.692Z,25.25
2019-03-28T00:27:37.734Z,24.18
2019-03-28T00:30:34.987Z,22.40
2019-03-28T00:33:31.256Z,22.87
2019-03-28T00:36:29.300Z,20.65
2019-03-28T00:39:26.674Z,21.23
2019-03-28T00:42:24.283Z,22.13
2019-03-28T00:45:21.391Z,21.55
2019-03-28T00:48:18.265Z,22.10
2019-03-28T00:51:15.749Z,22.37
2019-03-28T00:54:15.518Z,22.75
2019-03-28T00:57:12.634Z,22.22
2019-03-28T01:00:10.220Z,21.40
2019-03-28T01:03:06.987Z,24.12
2019-03-28T01:06:04.025Z,25.23
2019-03-28T01:09:03.966Z,29.32
2019-03-28T01:11:59.017Z,29.35
2019-03-28T01:14:57.697Z,31.85
2019-03-28T01:17:55.322Z,30.75
2019-03-28T01:20:52.706Z,27.02
2019-03-28T01:23:49.894Z,25.85
2019-03-28T01:26:56.605Z,24.23
2019-03-28T01:29:43.389Z,25.05
2019-03-28T01:32:40.223Z,25.65
2019-03-28T01:35:36.974Z,25.37
2019-03-28T01:38:33.559Z,26.68
2019-03-28T01:41:30.059Z,24.72
2019-03-28T01:44:26.996Z,25.55
2019-03-28T01:47:23.125Z,25.00
2019-03-28T01:50:19.528Z,31.95
2019-03-28T01:53:16.292Z,28.57
2019-03-28T01:56:12.929Z,27.48
2019-03-28T01:59:09.986Z,25.05
2019-03-28T02:02:06.410Z,24.57
2019-03-28T02:05:03.320Z,23.52
2019-03-28T02:08:02.589Z,23.50
2019-03-28T02:10:57.418Z,24.02
2019-03-28T02:13:55.947Z,24.80
2019-03-28T02:16:52.877Z,23.80
2019-03-28T02:19:49.770Z,24.85
2019-03-28T02:22:46.306Z,24.43
2019-03-28T02:25:43.403Z,25.45
2019-03-28T02:28:39.350Z,26.27
2019-03-28T02:31:35.826Z,28.10
2019-03-28T02:34:32.650Z,23.57
2019-03-28T02:37:29.211Z,22.70
2019-03-28T02:40:27.860Z,24.27
2019-03-28T02:43:25.023Z,24.63
2019-03-28T02:46:22.582Z,24.52
2019-03-28T02:49:19.729Z,26.02
2019-03-28T02:52:15.982Z,28.23
2019-03-28T02:55:12.718Z,31.07
2019-03-28T02:58:10.771Z,32.73
2019-03-28T03:01:06.494Z,32.00
2019-03-28T03:04:03.207Z,30.05
2019-03-28T03:07:00.294Z,27.75
2019-03-28T03:09:56.989Z,28.35
2019-03-28T03:12:54.141Z,29.20
2019-03-28T03:15:54.973Z,27.75
2019-03-28T03:18:51.552Z,27.10
2019-03-28T03:21:48.377Z,26.70
2019-03-28T03:24:44.957Z,25.23
2019-03-28T03:27:57.161Z,25.27
2019-03-28T03:30:39.705Z,26.25
2019-03-28T03:33:37.734Z,25.20
2019-03-28T03:36:35.508Z,24.87
2019-03-28T03:39:33.080Z,24.25
2019-03-28T03:42:30.367Z,26.45
2019-03-28T03:45:28.738Z,23.10
2019-03-28T03:48:25.572Z,22.48
2019-03-28T03:51:22.655Z,22.90
2019-03-28T03:54:19.988Z,25.30
2019-03-28T03:57:17.415Z,21.75
2019-03-28T04:00:14.377Z,22.58
2019-03-28T04:03:11.168Z,22.87
2019-03-28T04:06:08.387Z,22.13
2019-03-28T04:09:05.590Z,20.65
2019-03-28T04:12:02.638Z,22.05
2019-03-28T04:14:59.869Z,21.00
2019-03-28T04:17:56.829Z,22.42
2019-03-28T04:20:55.975Z,18.55
2019-03-28T04:23:55.768Z,18.98
2019-03-28T04:26:53.103Z,19.57
2019-03-28T04:29:51.498Z,18.23
2019-03-28T04:32:48.345Z,18.55
2019-03-28T04:35:45.077Z,17.73
2019-03-28T04:38:44.376Z,17.50
2019-03-28T04:41:41.561Z,16.10
2019-03-28T04:44:40.235Z,19.62
2019-03-28T04:47:37.100Z,18.62
2019-03-28T04:50:33.652Z,18.25
2019-03-28T04:53:32.731Z,19.12
2019-03-28T04:56:33.044Z,18.23
2019-03-28T04:59:30.686Z,18.32
2019-03-28T05:02:27.660Z,17.87
2019-03-28T05:05:24.437Z,17.05
2019-03-28T05:08:23.592Z,16.67
2019-03-28T05:11:21.364Z,16.73
2019-03-28T05:14:19.265Z,16.27
2019-03-28T05:17:19.133Z,15.98
2019-03-28T05:20:16.840Z,18.05
2019-03-28T05:23:14.325Z,17.70
2019-03-28T05:26:16.546Z,16.25
2019-03-28T05:29:50.993Z,16.30
2019-03-28T05:33:50.773Z,14.90
2019-03-28T05:37:37.581Z,15.72
2019-03-28T05:45:58.384Z,17.77
2019-03-28T05:49:38.260Z,14.53
2019-03-28T05:53:15.534Z,13.62
2019-03-28T05:56:15.937Z,13.98
2019-03-28T05:59:26.986Z,15.03
2019-03-28T06:02:30.541Z,13.75
2019-03-28T06:05:31.458Z,14.38
2019-03-28T06:08:44.793Z,14.05
2019-03-28T06:12:44.786Z,14.23
2019-03-28T06:15:18.245Z,13.98
2019-03-28T06:18:57.566Z,14.83
2019-03-28T06:22:13.832Z,15.60
2019-03-28T06:25:14.286Z,15.40
2019-03-28T06:28:12.207Z,14.28
2019-03-28T06:31:14.015Z,15.63
2019-03-28T06:34:18.361Z,15.20
2019-03-28T06:37:18.576Z,16.40
2019-03-28T06:40:23.589Z,15.43
2019-03-28T06:47:15.840Z,15.10
2019-03-28T06:50:20.506Z,15.72
2019-03-28T06:53:18.572Z,16.50
2019-03-28T06:56:17.320Z,19.12
2019-03-28T06:59:14.284Z,22.80
2019-03-28T07:02:10.926Z,20.00
2019-03-28T07:05:08.968Z,20.92
2019-03-28T07:08:06.391Z,21.33
2019-03-28T07:11:03.632Z,20.15
2019-03-28T07:14:03.049Z,21.42
2019-03-28T07:17:00.552Z,21.95
2019-03-28T07:20:01.039Z,19.87
2019-03-28T07:27:27.412Z,19.35
2019-03-28T07:30:52.075Z,20.75
2019-03-28T07:33:50.710Z,19.85
2019-03-28T07:36:47.805Z,19.40
2019-03-28T07:39:44.425Z,19.37
2019-03-28T07:42:41.402Z,19.02
2019-03-28T07:46:15.911Z,16.50
2019-03-28T07:49:10.564Z,13.53
2019-03-28T07:52:08.002Z,12.90
2019-03-28T07:55:06.285Z,12.25
2019-03-28T08:05:17.626Z,7.65
2019-03-28T08:08:19.650Z,8.98
2019-03-28T08:11:20.741Z,7.62
2019-03-28T08:14:21.899Z,7.70
2019-03-28T08:17:23.163Z,8.45
2019-03-28T08:20:26.889Z,9.95
2019-03-28T08:23:28.979Z,9.93
2019-03-28T08:26:30.192Z,11.50
2019-03-28T08:29:26.813Z,10.43
2019-03-28T08:32:27.009Z,10.32
2019-03-28T08:35:25.530Z,10.90
2019-03-28T08:38:23.491Z,11.12
2019-03-28T08:41:21.452Z,10.65
2019-03-28T08:44:22.629Z,11.53
2019-03-28T08:47:18.179Z,10.90
2019-03-28T08:50:17.029Z,11.70
2019-03-28T08:53:14.306Z,11.75
2019-03-28T08:56:12.156Z,11.08
2019-03-28T08:59:09.945Z,10.80
2019-03-28T09:02:08.226Z,10.85
2019-03-28T09:05:10.139Z,10.10
2019-03-28T09:08:12.619Z,10.90
2019-03-28T09:11:13.109Z,11.88
2019-03-28T09:14:11.471Z,11.25
2019-03-28T09:17:12.376Z,11.55
2019-03-28T09:20:13.995Z,12.60
2019-03-28T09:23:14.021Z,11.12
2019-03-28T09:26:14.718Z,21.52
2019-03-28T09:29:15.230Z,12.10
2019-03-28T09:32:16.058Z,9.43
2019-03-28T09:35:20.943Z,9.68
2019-03-28T09:38:20.762Z,9.60
2019-03-28T09:41:23.348Z,9.75
2019-03-28T09:44:26.164Z,9.13
2019-03-28T09:47:30.408Z,10.68
2019-03-28T09:50:31.793Z,9.95
2019-03-28T09:53:31.816Z,9.45
2019-03-28T09:56:32.195Z,9.98
2019-03-28T09:59:38.384Z,9.58
2019-03-28T10:02:39.607Z,9.43
2019-03-28T10:05:40.335Z,9.23
2019-03-28T10:08:54.370Z,9.15
2019-03-28T10:12:44.139Z,9.03
2019-03-28T10:15:50.049Z,9.38
2019-03-28T10:19:16.998Z,9.53
2019-03-28T10:22:40.148Z,9.80
2019-03-28T10:29:54.163Z,9.08
2019-03-28T10:33:04.971Z,13.28
2019-03-28T10:36:04.335Z,10.25
2019-03-28T10:39:40.504Z,11.45
2019-03-28T10:42:41.510Z,10.20
2019-03-28T10:46:08.266Z,11.60
2019-03-28T10:49:12.596Z,10.55
2019-03-28T10:52:27.259Z,9.48
2019-03-28T10:56:54.695Z,10.13
2019-03-28T11:07:47.460Z,11.10
2019-03-28T11:10:48.401Z,10.18
2019-03-28T11:13:50.055Z,10.38
2019-03-28T11:16:54.186Z,10.13
2019-03-28T11:20:02.882Z,10.32
2019-03-28T11:23:08.958Z,10.30
2019-03-28T11:26:33.654Z,10.78
2019-03-28T11:30:35.441Z,10.48
2019-03-28T11:41:56.212Z,11.08
2019-03-28T11:46:07.494Z,11.08
2019-03-28T11:54:07.072Z,11.08
2019-03-28T12:02:18.627Z,10.68
2019-03-28T12:05:05.272Z,11.25
2019-03-28T12:08:06.667Z,10.40
2019-03-28T12:11:03.575Z,10.90
2019-03-28T12:14:01.688Z,10.93
2019-03-28T12:17:00.070Z,11.53
2019-03-28T12:19:57.679Z,10.60
2019-03-28T12:22:56.068Z,11.12
2019-03-28T12:25:51.523Z,11.48
2019-03-28T12:28:48.302Z,14.95
2019-03-28T12:31:44.807Z,15.93
2019-03-28T12:34:41.523Z,17.55
2019-03-28T12:37:37.890Z,20.15
2019-03-28T12:40:35.218Z,19.92
2019-03-28T12:43:32.237Z,19.40
2019-03-28T12:46:29.135Z,21.20
2019-03-28T12:49:26.006Z,18.80
2019-03-28T12:52:22.548Z,18.80
2019-03-28T12:55:20.445Z,17.60
2019-03-28T12:58:18.638Z,17.05
2019-03-28T13:01:16.031Z,16.37
2019-03-28T13:04:12.534Z,18.37
2019-03-28T13:07:10.462Z,18.77
2019-03-28T13:10:08.120Z,19.27
2019-03-28T13:13:04.915Z,20.10
2019-03-28T13:16:01.803Z,18.37
2019-03-28T13:18:59.838Z,26.20
2019-03-28T13:21:57.757Z,27.50
2019-03-28T13:24:55.679Z,31.70
2019-03-28T13:27:55.051Z,40.88
2019-03-28T13:30:56.482Z,46.40
2019-03-28T13:34:02.147Z,39.83
2019-03-28T13:37:11.150Z,37.60
2019-03-28T13:40:08.410Z,37.28
2019-03-28T13:43:05.564Z,36.38
2019-03-28T13:46:02.985Z,32.45
2019-03-28T13:49:00.876Z,29.27
2019-03-28T13:51:57.630Z,29.40
2019-03-28T13:54:54.144Z,40.08
2019-03-28T13:57:52.231Z,36.58
2019-03-28T14:00:48.167Z,33.08
2019-03-28T14:03:48.070Z,30.10
2019-03-28T14:06:45.690Z,33.18
2019-03-28T14:09:45.821Z,37.90
2019-03-28T14:12:42.529Z,40.00
2019-03-28T14:15:38.744Z,42.88
2019-03-28T14:18:35.453Z,37.40
2019-03-28T14:21:32.845Z,33.73
2019-03-28T14:24:29.685Z,30.08
2019-03-28T14:27:27.097Z,33.98
2019-03-28T14:30:24.099Z,34.67
2019-03-28T14:33:23.299Z,34.70
2019-03-28T14:36:20.378Z,34.48
2019-03-28T14:39:17.479Z,33.00
2019-03-28T14:42:15.919Z,33.30
2019-03-28T14:45:13.759Z,34.43
2019-03-28T14:48:10.351Z,34.53
2019-03-28T14:51:08.123Z,39.20
2019-03-28T14:54:04.977Z,38.23
2019-03-28T14:57:02.143Z,38.45
2019-03-28T15:00:00.380Z,39.50
2019-03-28T15:02:58.134Z,37.80
2019-03-28T15:05:55.299Z,47.70
2019-03-28T15:08:53.737Z,37.10
2019-03-28T15:11:50.150Z,33.80
2019-03-28T15:14:46.175Z,38.78
2019-03-28T15:17:44.894Z,35.15
2019-03-28T15:20:40.138Z,37.83
2019-03-28T15:23:36.326Z,58.45
2019-03-28T15:26:32.845Z,45.95
2019-03-28T15:29:29.456Z,31.62
2019-03-28T15:32:28.945Z,33.28
2019-03-28T15:35:25.801Z,32.23
2019-03-28T15:38:21.950Z,31.95
2019-03-28T15:41:18.639Z,30.27
2019-03-28T15:44:15.305Z,25.17
2019-03-28T15:47:11.717Z,23.73
2019-03-28T15:50:08.769Z,24.23
2019-03-28T15:53:06.110Z,23.60
2019-03-28T15:56:03.235Z,24.67
2019-03-28T15:59:01.180Z,24.30
2019-03-28T16:01:59.941Z,25.20
2019-03-28T16:04:56.031Z,24.07
2019-03-28T16:07:52.835Z,24.40
2019-03-28T16:10:49.517Z,24.32
2019-03-28T16:13:47.292Z,23.25
2019-03-28T16:16:43.420Z,22.05
2019-03-28T16:19:40.288Z,21.90
2019-03-28T16:22:38.038Z,21.40
2019-03-28T16:25:37.509Z,21.07
2019-03-28T16:28:33.481Z,20.70
2019-03-28T16:31:30.669Z,20.95
2019-03-28T16:34:27.772Z,20.85
2019-03-28T16:37:25.223Z,20.97
2019-03-28T16:40:22.512Z,21.25
2019-03-28T16:43:20.814Z,20.55
2019-03-28T16:46:18.229Z,20.40
2019-03-28T16:49:14.821Z,20.02
2019-03-28T16:52:13.394Z,21.23
2019-03-28T16:55:10.623Z,20.15
2019-03-28T16:58:07.182Z,20.70
2019-03-28T17:01:05.447Z,22.32
2019-03-28T17:04:03.182Z,22.50
2019-03-28T17:07:00.155Z,23.25
2019-03-28T17:09:57.691Z,21.42
2019-03-28T17:12:54.566Z,22.62
2019-03-28T17:15:51.160Z,24.23
2019-03-28T17:18:48.527Z,26.75
2019-03-28T17:21:44.933Z,26.35
2019-03-28T17:24:42.920Z,22.62
2019-03-28T17:27:39.113Z,23.10
2019-03-28T17:30:35.582Z,23.10
2019-03-28T17:33:32.426Z,22.02
2019-03-28T17:36:29.367Z,21.75
2019-03-28T17:39:26.800Z,21.85
2019-03-28T17:42:24.021Z,22.42
2019-03-28T17:45:21.333Z,23.60
2019-03-28T17:48:18.306Z,22.32
2019-03-28T17:51:15.355Z,24.25
2019-03-28T17:54:12.280Z,23.95
2019-03-28T17:57:08.824Z,23.80
2019-03-28T18:00:06.068Z,24.05
2019-03-28T18:03:08.935Z,23.75
2019-03-28T18:06:01.102Z,22.73
2019-03-28T18:08:57.629Z,24.67
2019-03-28T18:11:54.313Z,23.90
2019-03-28T18:14:51.325Z,22.00
2019-03-28T18:17:47.809Z,22.35
2019-03-28T18:20:44.551Z,21.82
2019-03-28T18:23:41.525Z,22.07
2019-03-28T18:26:38.309Z,22.37
2019-03-28T18:29:36.061Z,20.70
2019-03-28T18:32:31.778Z,20.55
2019-03-28T18:35:28.843Z,20.45
2019-03-28T18:38:26.625Z,20.82
2019-03-28T18:41:23.496Z,20.50
2019-03-28T18:44:20.394Z,20.48
2019-03-28T18:47:17.864Z,21.50
2019-03-28T18:50:15.097Z,21.82
2019-03-28T18:53:12.255Z,22.30
2019-03-28T18:56:09.913Z,20.88
2019-03-28T18:59:06.579Z,21.37
2019-03-28T19:02:03.919Z,20.95
2019-03-28T19:05:01.273Z,20.50
2019-03-28T19:07:58.341Z,22.32
2019-03-28T19:10:56.620Z,22.02
2019-03-28T19:13:53.277Z,22.05
2019-03-28T19:16:52.091Z,20.65
2019-03-28T19:19:47.298Z,20.57
2019-03-28T19:22:43.690Z,21.37
2019-03-28T19:25:40.138Z,21.42
2019-03-28T19:28:39.867Z,21.50
2019-03-28T19:31:36.592Z,21.07
2019-03-28T19:34:33.052Z,21.57
2019-03-28T19:37:29.876Z,21.70
2019-03-28T19:40:26.968Z,24.57
2019-03-28T19:43:24.191Z,23.45
2019-03-28T19:46:20.528Z,25.80
2019-03-28T19:49:17.608Z,23.92
2019-03-28T19:52:14.665Z,23.27
2019-03-28T19:55:11.917Z,22.98
2019-03-28T19:58:09.427Z,21.97
2019-03-28T20:01:06.590Z,21.12
2019-03-28T20:04:03.041Z,21.60
2019-03-28T20:07:00.779Z,21.15
2019-03-28T20:09:57.605Z,21.55
2019-03-28T20:12:54.116Z,22.17
2019-03-28T20:15:53.459Z,22.35
2019-03-28T20:18:50.322Z,24.95
2019-03-28T20:21:46.760Z,26.77
2019-03-28T20:24:43.632Z,30.72
2019-03-28T20:27:40.741Z,42.33
2019-03-28T20:30:37.371Z,53.75
2019-03-28T20:33:33.860Z,91.25
2019-03-28T20:36:37.495Z,102.62
2019-03-28T20:39:27.830Z,97.60
2019-03-28T20:42:24.483Z,96.12
2019-03-28T20:45:21.541Z,90.87
2019-03-28T20:48:17.755Z,88.65
2019-03-28T20:51:14.422Z,87.60
2019-03-28T20:54:10.926Z,83.75
2019-03-28T20:57:07.679Z,79.35
2019-03-28T21:00:04.421Z,70.80
2019-03-28T21:03:03.036Z,69.95
2019-03-28T21:05:57.902Z,67.30
2019-03-28T21:08:54.030Z,66.20
2019-03-28T21:11:51.925Z,58.20
2019-03-28T21:14:48.660Z,60.38
2019-03-28T21:17:45.017Z,58.10
2019-03-28T21:20:41.409Z,58.38
2019-03-28T21:23:38.246Z,57.60
2019-03-28T21:26:35.697Z,62.53
2019-03-28T21:29:33.891Z,59.88
2019-03-28T21:32:28.986Z,60.78
2019-03-28T21:35:26.097Z,62.95
2019-03-28T21:38:23.006Z,62.65
2019-03-28T21:41:20.073Z,61.95
2019-03-28T21:44:16.609Z,58.68
2019-03-28T21:47:13.272Z,58.70
2019-03-28T21:50:10.366Z,55.78
2019-03-28T21:53:07.244Z,58.85
2019-03-28T21:56:04.137Z,55.70
2019-03-28T21:59:00.461Z,56.02
2019-03-28T22:01:57.376Z,56.95
2019-03-28T22:04:54.117Z,56.23
2019-03-28T22:07:50.726Z,59.20
2019-03-28T22:10:48.053Z,54.00
2019-03-28T22:13:44.701Z,53.90
2019-03-28T22:16:40.971Z,52.98
2019-03-28T22:19:37.647Z,54.58
2019-03-28T22:22:34.197Z,53.75
2019-03-28T22:25:31.106Z,54.23
2019-03-28T22:28:27.556Z,54.13
2019-03-28T22:31:24.731Z,53.28
2019-03-28T22:34:21.642Z,54.27
2019-03-28T22:37:18.348Z,53.70
2019-03-28T22:40:15.015Z,51.73
2019-03-28T22:43:11.360Z,52.33
2019-03-28T22:46:08.016Z,51.37
2019-03-28T22:49:05.274Z,53.17
2019-03-28T22:52:01.488Z,52.70
2019-03-28T22:54:58.413Z,53.05
2019-03-28T22:57:54.951Z,53.25
2019-03-28T23:00:52.275Z,53.55
2019-03-28T23:03:49.269Z,53.50
2019-03-28T23:06:46.398Z,54.53
2019-03-28T23:09:43.115Z,54.33
2019-03-28T23:12:39.642Z,54.50
2019-03-28T23:15:37.142Z,52.98
2019-03-28T23:18:33.145Z,53.08
2019-03-28T23:21:29.230Z,53.83
2019-03-28T23:24:25.886Z,53.40
2019-03-28T23:27:22.306Z,54.35
2019-03-28T23:30:18.626Z,55.65
2019-03-28T23:33:15.383Z,55.17
2019-03-28T23:36:12.037Z,55.90
2019-03-28T23:39:08.559Z,56.63
2019-03-28T23:42:04.699Z,57.55
2019-03-28T23:45:01.186Z,58.60
2019-03-28T23:47:57.601Z,61.15
2019-03-28T23:50:54.293Z,66.02
2019-03-28T23:53:50.983Z,72.22
2019-03-28T23:56:47.569Z,77.47
2019-03-28T23:59:43.807Z,79.87
